Time,TemperatureF,DewpointF,PressureIn,WindDirection,WindDirectionDegrees,WindSpeedMPH,WindSpeedGustMPH,Humidity,HourlyPrecipIn,Conditions,Clouds,dailyrainin,SoftwareType,DateUTC
2013-05-10 00:00:00,48.2,40.0,29.93,NW,320,10.0,12.0,73,0.00,,---,0.00,VWS V14.00,2013-05-10 06:00:00,
2013-05-10 00:05:00,48.1,39.9,29.93,NW,311,11.0,13.0,73,0.00,,---,0.00,VWS V14.00,2013-05-10 06:05:00,
2013-05-10 00:10:00,48.0,39.8,29.93,NW,313,9.0,13.0,73,0.00,,---,0.00,VWS V14.00,2013-05-10 06:10:00,
2013-05-10 00:15:00,47.9,39.7,29.93,WNW,302,11.0,13.0,73,0.00,,---,0.00,VWS V14.00,2013-05-10 06:15:00,
2013-05-10 00:20:00,48.1,39.5,29.93,NW,315,11.0,14.0,72,0.00,,---,0.00,VWS V14.00,2013-05-10 06:20:00,
2013-05-10 00:25:00,48.1,39.5,29.93,NW,315,8.0,10.0,72,0.00,,---,0.00,VWS V14.00,2013-05-10 06:25:00,
2013-05-10 00:30:00,47.8,39.2,29.93,WNW,294,10.0,11.0,72,0.00,,---,0.00,VWS V14.00,2013-05-10 06:30:00,
2013-05-10 00:35:00,47.2,39.0,29.93,WNW,290,8.0,10.0,73,0.00,,---,0.00,VWS V14.00,2013-05-10 06:35:00,
2013-05-10 00:41:00,46.9,39.1,29.93,WNW,302,8.0,10.0,74,0.00,,---,0.00,VWS V14.00,2013-05-10 06:41:00,
2013-05-10 00:46:00,46.7,38.9,29.93,WNW,290,8.0,10.0,74,0.00,,---,0.00,VWS V14.00,2013-05-10 06:46:00,
2013-05-10 00:51:00,46.8,39.0,29.93,WNW,291,9.0,10.0,74,0.00,,---,0.00,VWS V14.00,2013-05-10 06:51:00,
2013-05-10 00:56:00,46.7,38.9,29.93,WNW,300,8.0,12.0,74,0.00,,---,0.00,VWS V14.00,2013-05-10 06:56:00,
2013-05-10 01:01:00,46.5,38.7,29.93,WNW,294,8.0,12.0,74,0.00,,---,0.00,VWS V14.00,2013-05-10 07:01:00,
2013-05-10 01:06:00,46.5,38.7,29.93,WNW,297,10.0,12.0,74,0.00,,---,0.00,VWS V14.00,2013-05-10 07:06:00,
2013-05-10 01:11:00,46.4,38.6,29.93,WNW,292,9.0,12.0,74,0.00,,---,0.00,VWS V14.00,2013-05-10 07:11:00,
2013-05-10 01:16:00,46.4,38.2,29.93,WNW,289,8.0,10.0,73,0.00,,---,0.00,VWS V14.00,2013-05-10 07:16:00,
2013-05-10 01:21:00,46.5,38.3,29.92,WNW,296,12.0,12.0,73,0.00,,---,0.00,VWS V14.00,2013-05-10 07:21:00,
2013-05-10 01:26:00,46.6,38.4,29.93,WNW,295,9.0,11.0,73,0.00,,---,0.00,VWS V14.00,2013-05-10 07:26:00,
2013-05-10 01:31:00,46.5,38.0,29.92,WNW,291,9.0,12.0,72,0.00,,---,0.00,VWS V14.00,2013-05-10 07:31:00,
2013-05-10 01:36:00,46.5,38.0,29.93,NW,319,9.0,10.0,72,0.00,,---,0.00,VWS V14.00,2013-05-10 07:36:00,
2013-05-10 01:41:00,46.8,37.9,29.92,WNW,301,7.0,11.0,71,0.00,,---,0.00,VWS V14.00,2013-05-10 07:41:00,
2013-05-10 01:46:00,46.7,37.8,29.92,WNW,296,8.0,10.0,71,0.00,,---,0.00,VWS V14.00,2013-05-10 07:46:00,
2013-05-10 01:51:00,46.6,37.7,29.92,WNW,300,8.0,10.0,71,0.00,,---,0.00,VWS V14.00,2013-05-10 07:51:00,
2013-05-10 01:56:00,46.5,37.6,29.92,NW,312,11.0,11.0,71,0.00,,---,0.00,VWS V14.00,2013-05-10 07:56:00,
2013-05-10 02:01:00,47.0,38.1,29.92,NNW,336,9.0,12.0,71,0.00,,---,0.00,VWS V14.00,2013-05-10 08:01:00,
2013-05-10 02:06:00,47.6,38.0,29.92,NW,315,8.0,9.0,69,0.00,,---,0.00,VWS V14.00,2013-05-10 08:06:00,
2013-05-10 02:11:00,47.4,37.8,29.91,NW,306,7.0,9.0,69,0.00,,---,0.00,VWS V14.00,2013-05-10 08:11:00,
2013-05-10 02:16:00,47.0,37.7,29.92,NW,317,4.0,6.0,70,0.00,,---,0.00,VWS V14.00,2013-05-10 08:16:00,
2013-05-10 02:21:00,46.8,37.5,29.92,NNW,329,0.0,6.0,70,0.00,,---,0.00,VWS V14.00,2013-05-10 08:21:00,
2013-05-10 02:26:00,46.0,37.5,29.91,NNW,328,0.0,1.0,72,0.00,,---,0.00,VWS V14.00,2013-05-10 08:26:00,
2013-05-10 02:31:00,45.5,37.4,29.91,NW,312,3.0,5.0,73,0.00,,---,0.00,VWS V14.00,2013-05-10 08:31:00,
2013-05-10 02:36:00,45.1,37.3,29.91,WNW,284,5.0,7.0,74,0.00,,---,0.00,VWS V14.00,2013-05-10 08:36:00,
2013-05-10 02:42:00,44.7,37.3,29.91,West,277,7.0,9.0,75,0.00,,---,0.00,VWS V14.00,2013-05-10 08:42:00,
2013-05-10 02:47:00,44.6,37.5,29.91,WNW,284,1.0,5.0,76,0.00,,---,0.00,VWS V14.00,2013-05-10 08:47:00,
2013-05-10 02:52:00,44.2,37.1,29.91,WNW,284,0.0,5.0,76,0.00,,---,0.00,VWS V14.00,2013-05-10 08:52:00,
2013-05-10 02:57:00,44.3,37.2,29.91,WNW,298,3.0,8.0,76,0.00,,---,0.00,VWS V14.00,2013-05-10 08:57:00,
2013-05-10 03:02:00,44.7,37.9,29.91,WNW,285,7.0,8.0,77,0.00,,---,0.00,VWS V14.00,2013-05-10 09:02:00,
2013-05-10 03:07:00,44.4,37.0,29.91,WNW,288,8.0,10.0,75,0.00,,---,0.00,VWS V14.00,2013-05-10 09:07:00,
2013-05-10 03:12:00,44.2,37.1,29.91,West,279,9.0,10.0,76,0.00,,---,0.00,VWS V14.00,2013-05-10 09:12:00,
2013-05-10 03:17:00,44.2,37.1,29.91,West,281,8.0,10.0,76,0.00,,---,0.00,VWS V14.00,2013-05-10 09:17:00,
2013-05-10 03:22:00,44.0,36.9,29.91,West,277,0.0,10.0,76,0.00,,---,0.00,VWS V14.00,2013-05-10 09:22:00,
2013-05-10 03:27:00,44.1,37.0,29.91,West,277,3.0,4.0,76,0.00,,---,0.00,VWS V14.00,2013-05-10 09:27:00,
2013-05-10 03:32:00,44.9,37.8,29.91,West,269,5.0,8.0,76,0.00,,---,0.00,VWS V14.00,2013-05-10 09:32:00,
2013-05-10 03:37:00,44.4,37.0,29.91,West,267,0.0,0.0,75,0.00,,---,0.00,VWS V14.00,2013-05-10 09:37:00,
2013-05-10 03:42:00,44.2,37.8,29.91,West,267,4.0,5.0,78,0.00,,---,0.00,VWS V14.00,2013-05-10 09:42:00,
2013-05-10 03:47:00,44.8,38.4,29.91,SW,235,4.0,5.0,78,0.00,,---,0.00,VWS V14.00,2013-05-10 09:47:00,
2013-05-10 03:52:00,45.4,38.0,29.91,SW,221,5.0,7.0,75,0.00,,---,0.00,VWS V14.00,2013-05-10 09:52:00,
2013-05-10 03:57:00,45.8,37.7,29.91,SW,218,4.0,6.0,73,0.00,,---,0.00,VWS V14.00,2013-05-10 09:57:00,
2013-05-10 04:02:00,46.1,37.9,29.91,SW,229,5.0,8.0,73,0.00,,---,0.00,VWS V14.00,2013-05-10 10:02:00,
2013-05-10 04:07:00,46.3,38.1,29.91,SW,219,0.0,6.0,73,0.00,,---,0.00,VWS V14.00,2013-05-10 10:07:00,
2013-05-10 04:13:00,45.7,37.9,29.91,SW,225,0.0,6.0,74,0.00,,---,0.00,VWS V14.00,2013-05-10 10:13:00,
2013-05-10 04:18:00,46.0,37.8,29.91,SW,219,0.0,6.0,73,0.00,,---,0.00,VWS V14.00,2013-05-10 10:18:00,
2013-05-10 04:23:00,45.2,37.4,29.91,SW,219,0.0,6.0,74,0.00,,---,0.00,VWS V14.00,2013-05-10 10:23:00,
2013-05-10 04:28:00,45.0,37.6,29.91,SW,223,3.0,5.0,75,0.00,,---,0.00,VWS V14.00,2013-05-10 10:28:00,
2013-05-10 04:33:00,45.7,37.9,29.91,SW,223,0.0,5.0,74,0.00,,---,0.00,VWS V14.00,2013-05-10 10:33:00,
2013-05-10 04:38:00,45.2,37.4,29.91,SW,223,3.0,3.0,74,0.00,,---,0.00,VWS V14.00,2013-05-10 10:38:00,
2013-05-10 04:43:00,44.9,37.5,29.92,NNW,338,2.0,4.0,75,0.00,,---,0.00,VWS V14.00,2013-05-10 10:43:00,
2013-05-10 04:48:00,44.2,37.1,29.91,NNW,337,0.0,2.0,76,0.00,,---,0.00,VWS V14.00,2013-05-10 10:48:00,
2013-05-10 04:53:00,43.9,37.5,29.91,NNW,337,0.0,2.0,78,0.00,,---,0.00,VWS V14.00,2013-05-10 10:53:00,
2013-05-10 04:58:00,43.8,37.4,29.92,NNW,346,3.0,4.0,78,0.00,,---,0.00,VWS V14.00,2013-05-10 10:58:00,
2013-05-10 05:03:00,43.5,37.4,29.92,North,355,0.0,4.0,79,0.00,,---,0.00,VWS V14.00,2013-05-10 11:03:00,
2013-05-10 05:08:00,43.3,37.6,29.92,NNW,338,4.0,5.0,80,0.00,,---,0.00,VWS V14.00,2013-05-10 11:08:00,
2013-05-10 05:13:00,43.7,37.6,29.92,NNW,338,0.0,5.0,79,0.00,,---,0.00,VWS V14.00,2013-05-10 11:13:00,
2013-05-10 05:18:00,43.9,37.8,29.92,NNW,339,0.0,2.0,79,0.00,,---,0.00,VWS V14.00,2013-05-10 11:18:00,
2013-05-10 05:23:00,44.0,37.9,29.92,NNW,339,3.0,3.0,79,0.00,,---,0.00,VWS V14.00,2013-05-10 11:23:00,
2013-05-10 05:28:00,44.3,37.9,29.93,NNW,339,0.0,3.0,78,0.00,,---,0.00,VWS V14.00,2013-05-10 11:28:00,
2013-05-10 05:33:00,44.5,37.8,29.93,NNW,339,0.0,3.0,77,0.00,,---,0.00,VWS V14.00,2013-05-10 11:33:00,
2013-05-10 05:38:00,44.2,37.5,29.93,NNW,339,0.0,0.0,77,0.00,,---,0.00,VWS V14.00,2013-05-10 11:38:00,
2013-05-10 05:44:00,44.3,37.9,29.93,NNW,339,0.0,0.0,78,0.00,,---,0.00,VWS V14.00,2013-05-10 11:44:00,
2013-05-10 05:49:00,44.0,37.6,29.93,NNW,339,0.0,0.0,78,0.00,,---,0.00,VWS V14.00,2013-05-10 11:49:00,
2013-05-10 05:54:00,43.9,37.5,29.93,NNW,339,0.0,0.0,78,0.00,,---,0.00,VWS V14.00,2013-05-10 11:54:00,
2013-05-10 05:59:00,43.9,36.8,29.93,NNW,339,0.0,3.0,76,0.00,,---,0.00,VWS V14.00,2013-05-10 11:59:00,
2013-05-10 06:04:00,44.1,37.0,29.93,NNW,338,1.0,4.0,76,0.00,,---,0.00,VWS V14.00,2013-05-10 12:04:00,
2013-05-10 06:09:00,44.3,36.5,29.94,NNW,338,4.0,5.0,74,0.00,,---,0.00,VWS V14.00,2013-05-10 12:09:00,
2013-05-10 06:14:00,44.4,36.7,29.94,WNW,292,5.0,7.0,74,0.00,,---,0.00,VWS V14.00,2013-05-10 12:14:00,
2013-05-10 06:19:00,44.3,36.5,29.94,WNW,295,8.0,8.0,74,0.00,,---,0.00,VWS V14.00,2013-05-10 12:19:00,
2013-05-10 06:24:00,44.6,36.8,29.94,WNW,291,7.0,8.0,74,0.00,,---,0.00,VWS V14.00,2013-05-10 12:24:00,
2013-05-10 06:29:00,45.1,37.3,29.94,WNW,289,6.0,8.0,74,0.00,,---,0.00,VWS V14.00,2013-05-10 12:29:00,
2013-05-10 06:34:00,45.7,37.9,29.95,WNW,289,0.0,8.0,74,0.00,,---,0.00,VWS V14.00,2013-05-10 12:34:00,
2013-05-10 06:39:00,46.3,38.5,29.95,NW,304,5.0,5.0,74,0.00,,---,0.00,VWS V14.00,2013-05-10 12:39:00,
2013-05-10 06:44:00,46.8,38.3,29.95,WNW,295,5.0,6.0,72,0.00,,---,0.00,VWS V14.00,2013-05-10 12:44:00,
2013-05-10 06:49:00,47.1,38.2,29.95,WNW,294,2.0,6.0,71,0.00,,---,0.00,VWS V14.00,2013-05-10 12:49:00,
2013-05-10 06:54:00,47.6,38.7,29.95,WNW,297,5.0,6.0,71,0.00,,---,0.00,VWS V14.00,2013-05-10 12:54:00,
2013-05-10 06:59:00,47.9,39.7,29.95,NW,321,0.0,5.0,73,0.00,,---,0.00,VWS V14.00,2013-05-10 12:59:00,
2013-05-10 07:04:00,47.7,38.8,29.95,NW,324,0.0,5.0,71,0.00,,---,0.00,VWS V14.00,2013-05-10 13:04:00,
2013-05-10 07:09:00,47.9,39.3,29.95,NW,324,0.0,0.0,72,0.00,,---,0.00,VWS V14.00,2013-05-10 13:09:00,
2013-05-10 07:14:00,48.3,40.1,29.96,NW,324,0.0,0.0,73,0.00,,---,0.00,VWS V14.00,2013-05-10 13:14:00,
2013-05-10 07:19:00,49.2,40.2,29.96,NW,324,1.0,1.0,71,0.00,,---,0.00,VWS V14.00,2013-05-10 13:19:00,
2013-05-10 07:24:00,49.9,39.8,29.96,NW,325,0.0,1.0,68,0.00,,---,0.00,VWS V14.00,2013-05-10 13:24:00,
2013-05-10 07:29:00,50.6,40.4,29.96,NW,325,0.0,1.0,68,0.00,,---,0.00,VWS V14.00,2013-05-10 13:29:00,
2013-05-10 07:34:00,51.0,40.1,29.96,NW,325,0.0,1.0,66,0.00,,---,0.00,VWS V14.00,2013-05-10 13:34:00,
2013-05-10 07:39:00,51.3,40.3,29.96,NW,326,0.0,2.0,66,0.00,,---,0.00,VWS V14.00,2013-05-10 13:39:00,
2013-05-10 07:45:00,51.5,40.5,29.96,NNW,327,2.0,3.0,66,0.00,,---,0.00,VWS V14.00,2013-05-10 13:45:00,
2013-05-10 07:50:00,51.5,40.5,29.96,North,355,2.0,3.0,66,0.00,,---,0.00,VWS V14.00,2013-05-10 13:50:00,
2013-05-10 07:55:00,51.3,40.3,29.96,NNE,15,0.0,3.0,66,0.00,,---,0.00,VWS V14.00,2013-05-10 13:55:00,
2013-05-10 08:00:00,51.4,40.8,29.96,NE,38,1.0,4.0,67,0.00,,---,0.00,VWS V14.00,2013-05-10 14:00:00,
2013-05-10 08:05:00,51.4,42.0,29.96,East,80,0.0,4.0,70,0.00,,---,0.00,VWS V14.00,2013-05-10 14:05:00,
2013-05-10 08:10:00,51.4,42.0,29.96,East,80,0.0,3.0,70,0.00,,---,0.00,VWS V14.00,2013-05-10 14:10:00,
2013-05-10 08:15:00,51.3,41.9,29.96,East,81,0.0,0.0,70,0.00,,---,0.00,VWS V14.00,2013-05-10 14:15:00,
2013-05-10 08:20:00,51.5,41.7,29.96,East,81,0.0,3.0,69,0.00,,---,0.00,VWS V14.00,2013-05-10 14:20:00,
2013-05-10 08:25:00,51.4,41.6,29.96,East,81,0.0,0.0,69,0.00,,---,0.00,VWS V14.00,2013-05-10 14:25:00,
2013-05-10 08:30:00,51.9,42.1,29.96,East,81,0.0,4.0,69,0.00,,---,0.00,VWS V14.00,2013-05-10 14:30:00,
2013-05-10 08:35:00,52.2,42.3,29.96,East,82,0.0,2.0,69,0.00,,---,0.00,VWS V14.00,2013-05-10 14:35:00,
2013-05-10 08:40:00,52.6,42.3,29.96,East,82,0.0,3.0,68,0.00,,---,0.00,VWS V14.00,2013-05-10 14:40:00,
2013-05-10 08:45:00,53.0,42.7,29.96,East,82,0.0,1.0,68,0.00,,---,0.00,VWS V14.00,2013-05-10 14:45:00,
2013-05-10 08:50:00,53.3,41.8,29.96,SE,131,4.0,4.0,65,0.00,,---,0.00,VWS V14.00,2013-05-10 14:50:00,
2013-05-10 08:55:00,53.2,42.5,29.96,SE,138,1.0,1.0,67,0.00,,---,0.00,VWS V14.00,2013-05-10 14:55:00,
2013-05-10 09:00:00,52.9,42.3,29.96,SSE,151,0.0,6.0,67,0.00,,---,0.00,VWS V14.00,2013-05-10 15:00:00,
2013-05-10 09:05:00,53.2,42.5,29.96,SE,129,4.0,5.0,67,0.00,,---,0.00,VWS V14.00,2013-05-10 15:05:00,
2013-05-10 09:10:00,53.5,42.0,29.96,SE,136,0.0,5.0,65,0.00,,---,0.00,VWS V14.00,2013-05-10 15:10:00,
2013-05-10 09:15:00,53.6,42.5,29.96,SE,146,2.0,5.0,66,0.00,,---,0.00,VWS V14.00,2013-05-10 15:15:00,
2013-05-10 09:20:00,54.2,43.1,29.96,ESE,115,6.0,7.0,66,0.00,,---,0.00,VWS V14.00,2013-05-10 15:20:00,
2013-05-10 09:25:00,54.1,43.0,29.96,SE,125,1.0,6.0,66,0.00,,---,0.00,VWS V14.00,2013-05-10 15:25:00,
2013-05-10 09:30:00,54.6,43.5,29.96,ESE,103,0.0,6.0,66,0.00,,---,0.00,VWS V14.00,2013-05-10 15:30:00,
2013-05-10 09:36:00,55.2,43.7,29.96,East,91,4.0,4.0,65,0.00,,---,0.00,VWS V14.00,2013-05-10 15:36:00,
2013-05-10 09:41:00,55.3,42.9,29.96,East,100,5.0,5.0,63,0.00,,---,0.00,VWS V14.00,2013-05-10 15:41:00,
2013-05-10 09:46:00,55.4,43.0,29.96,SE,130,6.0,6.0,63,0.00,,---,0.00,VWS V14.00,2013-05-10 15:46:00,
2013-05-10 09:51:00,55.1,44.0,29.96,ESE,119,4.0,6.0,66,0.00,,---,0.00,VWS V14.00,2013-05-10 15:51:00,
2013-05-10 09:56:00,55.7,43.7,29.96,ESE,119,4.0,6.0,64,0.00,,---,0.00,VWS V14.00,2013-05-10 15:56:00,
2013-05-10 10:01:00,56.2,43.0,29.96,East,86,0.0,7.0,61,0.00,,---,0.00,VWS V14.00,2013-05-10 16:01:00,
2013-05-10 10:06:00,56.1,40.6,29.96,ESE,113,0.0,2.0,56,0.00,,---,0.00,VWS V14.00,2013-05-10 16:06:00,
2013-05-10 10:11:00,56.6,43.3,29.96,East,88,2.0,10.0,61,0.00,,---,0.00,VWS V14.00,2013-05-10 16:11:00,
2013-05-10 10:16:00,57.2,42.1,29.96,ESE,107,4.0,6.0,57,0.00,,---,0.00,VWS V14.00,2013-05-10 16:16:00,
2013-05-10 10:21:00,57.1,42.5,29.96,East,101,2.0,6.0,58,0.00,,---,0.00,VWS V14.00,2013-05-10 16:21:00,
2013-05-10 10:26:00,57.0,41.9,29.96,SE,128,1.0,7.0,57,0.00,,---,0.00,VWS V14.00,2013-05-10 16:26:00,
2013-05-10 10:31:00,56.8,42.2,29.96,ESE,117,2.0,7.0,58,0.00,,---,0.00,VWS V14.00,2013-05-10 16:31:00,
2013-05-10 10:36:00,56.9,40.9,29.96,ENE,69,0.0,7.0,55,0.00,,---,0.00,VWS V14.00,2013-05-10 16:36:00,
2013-05-10 10:41:00,57.2,43.9,29.96,NNE,30,2.0,7.0,61,0.00,,---,0.00,VWS V14.00,2013-05-10 16:41:00,
2013-05-10 10:46:00,57.6,41.6,29.96,SSW,209,3.0,8.0,55,0.00,,---,0.00,VWS V14.00,2013-05-10 16:46:00,
2013-05-10 10:51:00,57.7,42.1,29.96,East,86,0.0,8.0,56,0.00,,---,0.00,VWS V14.00,2013-05-10 16:51:00,
2013-05-10 10:56:00,58.3,42.7,29.96,NNE,24,4.0,5.0,56,0.00,,---,0.00,VWS V14.00,2013-05-10 16:56:00,
2013-05-10 11:01:00,58.9,42.8,29.97,NE,34,9.0,10.0,55,0.00,,---,0.00,VWS V14.00,2013-05-10 17:01:00,
2013-05-10 11:06:00,59.2,43.1,29.97,NNE,19,8.0,11.0,55,0.00,,---,0.00,VWS V14.00,2013-05-10 17:06:00,
2013-05-10 11:11:00,59.5,41.9,29.97,North,5,6.0,13.0,52,0.00,,---,0.00,VWS V14.00,2013-05-10 17:11:00,
2013-05-10 11:17:00,58.9,43.2,29.97,NE,45,8.0,11.0,56,0.00,,---,0.00,VWS V14.00,2013-05-10 17:17:00,
2013-05-10 11:22:00,59.2,42.6,29.97,NNE,12,18.0,23.0,54,0.00,,---,0.00,VWS V14.00,2013-05-10 17:22:00,
2013-05-10 11:27:00,56.0,38.2,29.97,NNW,344,19.0,30.0,51,0.00,,---,0.00,VWS V14.00,2013-05-10 17:27:00,
2013-05-10 11:32:00,53.6,40.1,29.98,North,355,0.0,30.0,60,0.00,,---,0.00,VWS V14.00,2013-05-10 17:32:00,
2013-05-10 11:37:00,53.5,35.3,29.97,NNE,24,1.0,5.0,50,0.00,,---,0.00,VWS V14.00,2013-05-10 17:37:00,
2013-05-10 11:42:00,54.2,38.9,29.96,ENE,71,2.0,11.0,56,0.00,,---,0.00,VWS V14.00,2013-05-10 17:42:00,
2013-05-10 11:47:00,54.8,40.3,29.96,NNE,18,2.0,6.0,58,0.00,,---,0.00,VWS V14.00,2013-05-10 17:47:00,
2013-05-10 11:52:00,56.6,40.6,29.96,North,360,8.0,13.0,55,0.00,,---,0.00,VWS V14.00,2013-05-10 17:52:00,
2013-05-10 11:57:00,58.6,42.5,29.95,North,355,11.0,22.0,55,0.00,,---,0.00,VWS V14.00,2013-05-10 17:57:00,
2013-05-10 12:02:00,60.5,42.3,29.96,NNE,13,14.0,22.0,51,0.00,,---,0.00,VWS V14.00,2013-05-10 18:02:00,
2013-05-10 12:07:00,60.2,40.5,29.96,NNE,17,16.0,17.0,48,0.00,,---,0.00,VWS V14.00,2013-05-10 18:07:00,
2013-05-10 12:12:00,59.2,38.5,29.96,NNE,28,10.0,19.0,46,0.00,,---,0.00,VWS V14.00,2013-05-10 18:12:00,
2013-05-10 12:17:00,58.2,38.1,29.97,NE,38,10.0,16.0,47,0.00,,---,0.00,VWS V14.00,2013-05-10 18:17:00,
2013-05-10 12:22:00,58.0,37.9,29.97,NNE,29,15.0,17.0,47,0.00,,---,0.00,VWS V14.00,2013-05-10 18:22:00,
2013-05-10 12:27:00,57.8,36.6,29.96,NE,42,8.0,17.0,45,0.00,,---,0.00,VWS V14.00,2013-05-10 18:27:00,
2013-05-10 12:32:00,57.1,37.1,29.96,NNE,19,12.0,21.0,47,0.00,,---,0.00,VWS V14.00,2013-05-10 18:32:00,
2013-05-10 12:37:00,56.7,36.7,29.97,NE,37,6.0,20.0,47,0.00,,---,0.00,VWS V14.00,2013-05-10 18:37:00,
2013-05-10 12:42:00,56.6,37.2,29.96,NE,43,2.0,20.0,48,0.00,,---,0.00,VWS V14.00,2013-05-10 18:42:00,
2013-05-10 12:47:00,56.7,36.2,29.96,ENE,78,3.0,4.0,46,0.00,,---,0.00,VWS V14.00,2013-05-10 18:47:00,
2013-05-10 12:52:00,57.1,38.1,29.96,East,79,0.0,4.0,49,0.00,,---,0.00,VWS V14.00,2013-05-10 18:52:00,
2013-05-10 12:57:00,58.2,36.4,29.96,NNE,28,0.0,6.0,44,0.00,,---,0.00,VWS V14.00,2013-05-10 18:57:00,
2013-05-10 13:02:00,59.7,38.3,29.96,NNE,25,0.0,7.0,45,0.00,,---,0.00,VWS V14.00,2013-05-10 19:02:00,
2013-05-10 13:08:00,61.0,38.4,29.96,NE,45,5.0,6.0,43,0.00,,---,0.00,VWS V14.00,2013-05-10 19:08:00,
2013-05-10 13:13:00,61.0,37.2,29.95,NE,48,1.0,7.0,41,0.00,,---,0.00,VWS V14.00,2013-05-10 19:13:00,
2013-05-10 13:18:00,62.0,38.0,29.95,North,11,15.0,17.0,41,0.00,,---,0.00,VWS V14.00,2013-05-10 19:18:00,
2013-05-10 13:23:00,61.9,34.7,29.95,North,355,9.0,20.0,36,0.00,,---,0.00,VWS V14.00,2013-05-10 19:23:00,
2013-05-10 13:28:00,59.4,34.5,29.95,NW,304,6.0,22.0,39,0.00,,---,0.00,VWS V14.00,2013-05-10 19:28:00,
2013-05-10 13:33:00,59.2,34.9,29.95,North,355,10.0,22.0,40,0.00,,---,0.00,VWS V14.00,2013-05-10 19:33:00,
2013-05-10 13:38:00,59.9,36.2,29.95,NNE,24,6.0,10.0,41,0.00,,---,0.00,VWS V14.00,2013-05-10 19:38:00,
2013-05-10 13:43:00,61.4,34.2,29.94,North,9,9.0,16.0,36,0.00,,---,0.00,VWS V14.00,2013-05-10 19:43:00,
2013-05-10 13:48:00,61.4,34.9,29.94,NNE,18,6.0,11.0,37,0.00,,---,0.00,VWS V14.00,2013-05-10 19:48:00,
2013-05-10 13:53:00,61.7,34.5,29.94,NNE,25,7.0,11.0,36,0.00,,---,0.00,VWS V14.00,2013-05-10 19:53:00,
2013-05-10 13:58:00,61.7,34.5,29.94,NNE,19,6.0,8.0,36,0.00,,---,0.00,VWS V14.00,2013-05-10 19:58:00,
2013-05-10 14:03:00,62.4,36.5,29.94,East,80,2.0,8.0,38,0.00,,---,0.00,VWS V14.00,2013-05-10 20:03:00,
2013-05-10 14:08:00,63.4,36.7,29.94,East,80,4.0,7.0,37,0.00,,---,0.00,VWS V14.00,2013-05-10 20:08:00,
2013-05-10 14:13:00,63.9,35.7,29.93,ENE,78,2.0,7.0,35,0.00,,---,0.00,VWS V14.00,2013-05-10 20:13:00,
2013-05-10 14:18:00,64.3,38.2,29.93,ESE,117,13.0,13.0,38,0.00,,---,0.00,VWS V14.00,2013-05-10 20:18:00,
2013-05-10 14:23:00,62.9,40.1,29.93,SSE,159,16.0,18.0,43,0.00,,---,0.00,VWS V14.00,2013-05-10 20:23:00,
2013-05-10 14:28:00,60.9,38.3,29.93,SSE,153,11.0,18.0,43,0.00,,---,0.00,VWS V14.00,2013-05-10 20:28:00,
2013-05-10 14:33:00,60.3,38.9,29.94,SSW,200,8.0,18.0,45,0.00,,---,0.00,VWS V14.00,2013-05-10 20:33:00,
2013-05-10 14:38:00,60.2,37.0,29.94,South,171,5.0,12.0,42,0.00,,---,0.00,VWS V14.00,2013-05-10 20:38:00,
2013-05-10 14:43:00,60.2,41.0,29.93,SSE,166,12.0,17.0,49,0.00,,---,0.00,VWS V14.00,2013-05-10 20:43:00,
2013-05-10 14:49:00,61.2,41.4,29.93,SSE,160,12.0,17.0,48,0.00,,---,0.00,VWS V14.00,2013-05-10 20:49:00,
2013-05-10 14:54:00,62.1,40.5,29.93,SSE,161,13.0,17.0,45,0.00,,---,0.00,VWS V14.00,2013-05-10 20:54:00,
2013-05-10 14:59:00,62.3,40.1,29.93,SSE,150,12.0,18.0,44,0.00,,---,0.00,VWS V14.00,2013-05-10 20:59:00,
2013-05-10 15:04:00,62.8,40.6,29.93,SSE,160,13.0,19.0,44,0.00,,---,0.00,VWS V14.00,2013-05-10 21:04:00,
2013-05-10 15:09:00,63.1,40.3,29.92,SSW,197,9.0,15.0,43,0.00,,---,0.00,VWS V14.00,2013-05-10 21:09:00,
2013-05-10 15:14:00,63.0,38.3,29.92,South,169,9.0,15.0,40,0.00,,---,0.00,VWS V14.00,2013-05-10 21:14:00,
2013-05-10 15:19:00,62.6,38.0,29.92,South,177,6.0,11.0,40,0.00,,---,0.00,VWS V14.00,2013-05-10 21:19:00,
2013-05-10 15:24:00,62.3,37.7,29.92,SSE,161,0.0,11.0,40,0.00,,---,0.00,VWS V14.00,2013-05-10 21:24:00,
2013-05-10 15:29:00,62.7,39.3,29.92,SE,144,5.0,11.0,42,0.00,,---,0.00,VWS V14.00,2013-05-10 21:29:00,
2013-05-10 15:34:00,62.4,39.0,29.91,SSE,167,10.0,12.0,42,0.00,,---,0.00,VWS V14.00,2013-05-10 21:34:00,
2013-05-10 15:39:00,62.6,39.2,29.91,South,175,11.0,12.0,42,0.00,,---,0.00,VWS V14.00,2013-05-10 21:39:00,
2013-05-10 15:44:00,62.8,38.1,29.91,South,183,5.0,13.0,40,0.00,,---,0.00,VWS V14.00,2013-05-10 21:44:00,
2013-05-10 15:49:00,62.5,37.9,29.91,South,175,9.0,14.0,40,0.00,,---,0.00,VWS V14.00,2013-05-10 21:49:00,
2013-05-10 15:54:00,62.7,38.7,29.91,South,174,8.0,14.0,41,0.00,,---,0.00,VWS V14.00,2013-05-10 21:54:00,
2013-05-10 15:58:00,63.0,37.7,29.91,South,186,6.0,8.0,39,0.00,,---,0.00,VWS V14.00,2013-05-10 21:58:00,
2013-05-10 15:59:00,63.1,36.4,29.91,South,175,4.0,8.0,37,0.00,,---,0.00,VWS V14.00,2013-05-10 21:59:00,
2013-05-10 16:01:00,63.1,36.4,29.92,South,175,0.0,8.0,37,0.00,,---,0.00,VWS V14.00,2013-05-10 22:01:00,
2013-05-10 16:06:00,63.0,35.7,29.92,ESE,117,9.0,15.0,36,0.00,,---,0.00,VWS V14.00,2013-05-10 22:06:00,
2013-05-10 16:11:00,61.8,36.6,29.91,North,355,3.0,15.0,39,0.00,,---,0.00,VWS V14.00,2013-05-10 22:11:00,
2013-05-10 16:16:00,62.0,35.5,29.91,North,355,0.0,4.0,37,0.00,,---,0.00,VWS V14.00,2013-05-10 22:16:00,
2013-05-10 16:21:00,62.4,37.8,29.91,NE,50,3.0,5.0,40,0.00,,---,0.00,VWS V14.00,2013-05-10 22:21:00,
2013-05-10 16:26:00,63.5,37.5,29.91,NE,56,6.0,11.0,38,0.00,,---,0.00,VWS V14.00,2013-05-10 22:26:00,
2013-05-10 16:31:00,63.8,35.7,29.91,NE,49,2.0,11.0,35,0.00,,---,0.00,VWS V14.00,2013-05-10 22:31:00,
2013-05-10 16:36:00,64.1,37.3,29.91,SE,124,5.0,7.0,37,0.00,,---,0.00,VWS V14.00,2013-05-10 22:36:00,
2013-05-10 16:41:00,64.2,37.4,29.91,ESE,105,6.0,8.0,37,0.00,,---,0.00,VWS V14.00,2013-05-10 22:41:00,
2013-05-10 16:46:00,63.3,36.6,29.90,SSE,158,0.0,6.0,37,0.00,,---,0.00,VWS V14.00,2013-05-10 22:46:00,
2013-05-10 16:51:00,62.9,36.2,29.91,SSE,160,0.0,6.0,37,0.00,,---,0.00,VWS V14.00,2013-05-10 22:51:00,
2013-05-10 16:56:00,62.9,37.6,29.91,NE,38,1.0,7.0,39,0.00,,---,0.00,VWS V14.00,2013-05-10 22:56:00,
2013-05-10 17:01:00,63.4,36.7,29.91,NNW,330,0.0,7.0,37,0.00,,---,0.00,VWS V14.00,2013-05-10 23:01:00,
2013-05-10 17:07:00,64.0,39.2,29.91,NE,36,8.0,8.0,40,0.00,,---,0.00,VWS V14.00,2013-05-10 23:07:00,
2013-05-10 17:12:00,63.9,36.5,29.91,NE,46,0.0,11.0,36,0.00,,---,0.00,VWS V14.00,2013-05-10 23:12:00,
2013-05-10 17:17:00,63.7,37.6,29.91,East,101,5.0,12.0,38,0.00,,---,0.00,VWS V14.00,2013-05-10 23:17:00,
2013-05-10 17:22:00,63.5,38.1,29.92,SE,145,6.0,19.0,39,0.00,,---,0.00,VWS V14.00,2013-05-10 23:22:00,
2013-05-10 17:27:00,62.6,37.3,29.92,NNE,30,19.0,19.0,39,0.00,,---,0.00,VWS V14.00,2013-05-10 23:27:00,
2013-05-10 17:32:00,62.1,38.1,29.92,NE,48,10.0,19.0,41,0.00,,---,0.00,VWS V14.00,2013-05-10 23:32:00,
2013-05-10 17:37:00,61.2,41.4,29.92,NNE,33,5.0,8.0,48,0.01,,---,0.01,VWS V14.00,2013-05-10 23:37:00,
2013-05-10 17:42:00,60.6,40.8,29.92,North,9,3.0,8.0,48,0.01,,---,0.01,VWS V14.00,2013-05-10 23:42:00,
2013-05-10 17:47:00,61.1,39.0,29.92,North,10,2.0,3.0,44,0.01,,---,0.01,VWS V14.00,2013-05-10 23:47:00,
2013-05-10 17:52:00,61.5,39.4,29.91,North,5,4.0,5.0,44,0.01,,---,0.01,VWS V14.00,2013-05-10 23:52:00,
2013-05-10 17:57:00,61.4,37.5,29.92,NNE,15,6.0,8.0,41,0.01,,---,0.01,VWS V14.00,2013-05-10 23:57:00,
2013-05-10 18:03:00,61.0,39.0,29.92,ENE,65,5.0,11.0,44,0.01,,---,0.01,VWS V14.00,2013-05-11 00:03:00,
2013-05-10 18:08:00,60.6,41.4,29.92,East,80,0.0,5.0,49,0.01,,---,0.01,VWS V14.00,2013-05-11 00:08:00,
2013-05-10 18:13:00,60.6,39.2,29.92,East,80,0.0,5.0,45,0.01,,---,0.01,VWS V14.00,2013-05-11 00:13:00,
2013-05-10 18:18:00,60.8,37.6,29.92,East,80,0.0,0.0,42,0.01,,---,0.01,VWS V14.00,2013-05-11 00:18:00,
2013-05-10 18:23:00,61.1,38.5,29.92,ESE,109,0.0,2.0,43,0.01,,---,0.01,VWS V14.00,2013-05-11 00:23:00,
2013-05-10 18:28:00,61.2,38.0,29.92,NE,42,0.0,10.0,42,0.01,,---,0.01,VWS V14.00,2013-05-11 00:28:00,
2013-05-10 18:33:00,61.3,35.5,29.92,North,355,4.0,10.0,38,0.01,,---,0.01,VWS V14.00,2013-05-11 00:33:00,
2013-05-10 18:38:00,61.2,36.1,29.92,NNW,346,7.0,9.0,39,0.00,,---,0.01,VWS V14.00,2013-05-11 00:38:00,
2013-05-10 18:43:00,60.8,37.0,29.93,NNE,13,9.0,23.0,41,0.00,,---,0.01,VWS V14.00,2013-05-11 00:43:00,
2013-05-10 18:48:00,59.8,36.7,29.94,North,355,7.0,16.0,42,0.00,,---,0.01,VWS V14.00,2013-05-11 00:48:00,
2013-05-10 18:53:00,59.1,36.7,29.93,WNW,283,8.0,16.0,43,0.00,,---,0.01,VWS V14.00,2013-05-11 00:53:00,
2013-05-10 18:58:00,58.4,37.2,29.93,NNW,335,2.0,10.0,45,0.00,,---,0.01,VWS V14.00,2013-05-11 00:58:00,
2013-05-10 19:03:00,58.3,37.1,29.93,NNW,328,2.0,10.0,45,0.00,,---,0.01,VWS V14.00,2013-05-11 01:03:00,
2013-05-10 19:08:00,58.5,36.7,29.93,NW,318,4.0,6.0,44,0.00,,---,0.01,VWS V14.00,2013-05-11 01:08:00,
2013-05-10 19:13:00,58.6,36.8,29.93,West,281,6.0,7.0,44,0.00,,---,0.01,VWS V14.00,2013-05-11 01:13:00,
2013-05-10 19:18:00,58.5,36.7,29.93,NW,323,0.0,6.0,44,0.00,,---,0.01,VWS V14.00,2013-05-11 01:18:00,
2013-05-10 19:23:00,58.5,36.7,29.93,NNW,328,0.0,6.0,44,0.00,,---,0.01,VWS V14.00,2013-05-11 01:23:00,
2013-05-10 19:28:00,58.4,36.6,29.93,WNW,282,0.0,1.0,44,0.00,,---,0.01,VWS V14.00,2013-05-11 01:28:00,
2013-05-10 19:33:00,58.3,37.1,29.93,North,350,2.0,6.0,45,0.00,,---,0.01,VWS V14.00,2013-05-11 01:33:00,
2013-05-10 19:38:00,58.2,36.4,29.93,NNW,341,0.0,6.0,44,0.00,,---,0.01,VWS V14.00,2013-05-11 01:38:00,
2013-05-10 19:43:00,58.1,36.9,29.93,North,360,0.0,6.0,45,0.00,,---,0.01,VWS V14.00,2013-05-11 01:43:00,
2013-05-10 19:48:00,57.9,36.7,29.94,North,355,1.0,2.0,45,0.00,,---,0.01,VWS V14.00,2013-05-11 01:48:00,
2013-05-10 19:54:00,57.8,36.6,29.94,NW,325,4.0,5.0,45,0.00,,---,0.01,VWS V14.00,2013-05-11 01:54:00,
2013-05-10 19:59:00,57.5,36.9,29.94,WNW,303,6.0,7.0,46,0.00,,---,0.01,VWS V14.00,2013-05-11 01:59:00,
2013-05-10 20:04:00,57.0,37.0,29.94,NW,306,6.0,9.0,47,0.00,,---,0.01,VWS V14.00,2013-05-11 02:04:00,
2013-05-10 20:09:00,56.9,36.9,29.94,NW,319,9.0,11.0,47,0.00,,---,0.01,VWS V14.00,2013-05-11 02:09:00,
2013-05-10 20:14:00,57.1,37.1,29.94,NW,317,10.0,11.0,47,0.00,,---,0.01,VWS V14.00,2013-05-11 02:14:00,
2013-05-10 20:19:00,57.4,36.8,29.94,NW,326,9.0,12.0,46,0.00,,---,0.01,VWS V14.00,2013-05-11 02:19:00,
2013-05-10 20:24:00,57.3,36.7,29.94,NW,324,10.0,12.0,46,0.00,,---,0.01,VWS V14.00,2013-05-11 02:24:00,
2013-05-10 20:29:00,57.2,36.6,29.94,NW,309,5.0,11.0,46,0.00,,---,0.01,VWS V14.00,2013-05-11 02:29:00,
2013-05-10 20:34:00,56.8,36.8,29.95,NNW,340,6.0,11.0,47,0.00,,---,0.01,VWS V14.00,2013-05-11 02:34:00,
2013-05-10 20:39:00,56.2,37.3,29.95,NW,306,5.0,9.0,49,0.00,,---,0.01,VWS V14.00,2013-05-11 02:39:00,
2013-05-10 20:44:00,55.8,36.4,29.95,WNW,294,5.0,9.0,48,0.00,,---,0.01,VWS V14.00,2013-05-11 02:44:00,
2013-05-10 20:49:00,55.7,36.8,29.95,NW,309,5.0,8.0,49,0.00,,---,0.01,VWS V14.00,2013-05-11 02:49:00,
2013-05-10 20:54:00,55.2,36.9,29.95,WNW,298,6.0,8.0,50,0.00,,---,0.01,VWS V14.00,2013-05-11 02:54:00,
2013-05-10 20:59:00,55.1,36.3,29.96,NW,323,9.0,11.0,49,0.00,,---,0.01,VWS V14.00,2013-05-11 02:59:00,
2013-05-10 21:04:00,55.8,35.9,29.96,NW,322,7.0,12.0,47,0.00,,---,0.01,VWS V14.00,2013-05-11 03:04:00,
2013-05-10 21:09:00,56.4,35.3,29.96,NNW,327,9.0,12.0,45,0.00,,---,0.01,VWS V14.00,2013-05-11 03:09:00,
2013-05-10 21:14:00,56.9,35.2,29.97,NW,310,10.0,14.0,44,0.00,,---,0.01,VWS V14.00,2013-05-11 03:14:00,
2013-05-10 21:19:00,57.5,35.2,29.97,NW,306,11.0,14.0,43,0.00,,---,0.01,VWS V14.00,2013-05-11 03:19:00,
2013-05-10 21:24:00,57.5,35.2,29.97,NW,306,12.0,14.0,43,0.00,,---,0.01,VWS V14.00,2013-05-11 03:24:00,
2013-05-10 21:29:00,57.4,35.7,29.97,NW,315,12.0,16.0,44,0.00,,---,0.01,VWS V14.00,2013-05-11 03:29:00,
2013-05-10 21:34:00,57.3,35.6,29.98,NW,315,11.0,16.0,44,0.00,,---,0.01,VWS V14.00,2013-05-11 03:34:00,
2013-05-10 21:39:00,57.2,35.5,29.98,NW,325,10.0,15.0,44,0.00,,---,0.01,VWS V14.00,2013-05-11 03:39:00,
2013-05-10 21:44:00,57.1,35.4,29.98,NW,310,10.0,15.0,44,0.00,,---,0.01,VWS V14.00,2013-05-11 03:44:00,
2013-05-10 21:50:00,57.2,35.5,29.98,NW,313,14.0,15.0,44,0.00,,---,0.01,VWS V14.00,2013-05-11 03:50:00,
2013-05-10 21:55:00,57.3,35.0,29.98,NW,325,9.0,16.0,43,0.00,,---,0.01,VWS V14.00,2013-05-11 03:55:00,
2013-05-10 22:00:00,57.7,34.2,29.98,NW,317,11.0,16.0,41,0.00,,---,0.01,VWS V14.00,2013-05-11 04:00:00,
2013-05-10 22:01:00,57.8,34.9,29.98,NNW,331,10.0,16.0,42,0.00,,---,0.01,VWS V14.00,2013-05-11 04:01:00,
2013-05-10 22:02:00,57.8,34.3,29.98,NNW,333,10.0,16.0,41,0.00,,---,0.01,VWS V14.00,2013-05-11 04:02:00,
2013-05-10 22:03:00,57.9,34.4,29.99,NW,319,12.0,16.0,41,0.00,,---,0.01,VWS V14.00,2013-05-11 04:03:00,
2013-05-10 22:08:00,57.3,34.4,29.99,NW,310,12.0,14.0,42,0.00,,---,0.01,VWS V14.00,2013-05-11 04:08:00,
2013-05-10 22:13:00,56.9,35.2,29.99,NNW,333,10.0,14.0,44,0.00,,---,0.01,VWS V14.00,2013-05-11 04:13:00,
2013-05-10 22:18:00,56.9,35.2,29.99,NNW,328,8.0,14.0,44,0.00,,---,0.01,VWS V14.00,2013-05-11 04:18:00,
2013-05-10 22:23:00,56.7,35.0,29.99,NW,309,11.0,14.0,44,0.00,,---,0.01,VWS V14.00,2013-05-11 04:23:00,
2013-05-10 22:28:00,56.7,34.5,29.99,NW,307,11.0,13.0,43,0.00,,---,0.01,VWS V14.00,2013-05-11 04:28:00,
2013-05-10 22:33:00,56.8,34.6,30.00,NW,304,11.0,14.0,43,0.00,,---,0.01,VWS V14.00,2013-05-11 04:33:00,
2013-05-10 22:38:00,56.7,34.5,30.00,NW,315,11.0,13.0,43,0.00,,---,0.01,VWS V14.00,2013-05-11 04:38:00,
2013-05-10 22:43:00,56.4,34.8,30.00,NW,313,10.0,13.0,44,0.00,,---,0.01,VWS V14.00,2013-05-11 04:43:00,
2013-05-10 22:48:00,56.3,34.7,30.00,NW,313,11.0,13.0,44,0.00,,---,0.01,VWS V14.00,2013-05-11 04:48:00,
2013-05-10 22:53:00,56.4,34.2,30.00,NW,316,11.0,13.0,43,0.00,,---,0.01,VWS V14.00,2013-05-11 04:53:00,
2013-05-10 22:58:00,56.6,34.4,30.00,NW,313,12.0,13.0,43,0.00,,---,0.01,VWS V14.00,2013-05-11 04:58:00,
2013-05-10 23:03:00,56.7,34.5,30.00,NW,318,11.0,13.0,43,0.00,,---,0.01,VWS V14.00,2013-05-11 05:03:00,
2013-05-10 23:09:00,56.1,34.5,30.01,NW,309,13.0,13.0,44,0.00,,---,0.01,VWS V14.00,2013-05-11 05:09:00,
2013-05-10 23:14:00,56.2,34.6,30.01,NW,311,12.0,15.0,44,0.00,,---,0.01,VWS V14.00,2013-05-11 05:14:00,
2013-05-10 23:19:00,55.7,34.7,30.01,NW,315,10.0,13.0,45,0.00,,---,0.01,VWS V14.00,2013-05-11 05:19:00,
2013-05-10 23:24:00,55.6,33.5,30.02,NNW,331,11.0,15.0,43,0.00,,---,0.01,VWS V14.00,2013-05-11 05:24:00,
2013-05-10 23:29:00,55.7,33.6,30.02,NNW,337,13.0,14.0,43,0.00,,---,0.01,VWS V14.00,2013-05-11 05:29:00,
2013-05-10 23:34:00,56.0,33.8,30.03,North,355,13.0,17.0,43,0.00,,---,0.01,VWS V14.00,2013-05-11 05:34:00,
2013-05-10 23:39:00,55.9,33.2,30.03,North,360,15.0,16.0,42,0.00,,---,0.01,VWS V14.00,2013-05-11 05:39:00,
2013-05-10 23:44:00,55.0,34.6,30.04,North,5,15.0,17.0,46,0.00,,---,0.01,VWS V14.00,2013-05-11 05:44:00,
2013-05-10 23:49:00,53.9,34.2,30.04,North,5,19.0,22.0,47,0.00,,---,0.01,VWS V14.00,2013-05-11 05:49:00,
2013-05-10 23:54:00,53.0,34.9,30.05,North,355,11.0,22.0,50,0.00,,---,0.01,VWS V14.00,2013-05-11 05:54:00,
2013-05-10 23:59:00,52.6,35.0,30.05,North,355,13.0,21.0,51,0.00,,---,0.00,VWS V14.00,2013-05-11 05:59:00,